Time;durP1;ratioP1;P1;durP2;ratioP2;P2;SDS_P1;SDS_P2;PMS_P1;PMS_P2;Temp;Humidity;BMP_temperature;BMP_pressure;BME280_temperature;BME280_humidity;BME280_pressure;Samples;Min_cycle;Max_cycle;Signal;HPM_P1;HPM_P2
2022/07/15 00:01:00;;;;;;;;;;;19.70;66.10;;;19.06;61.29;96244.84;4178507;34;20270;-85
2022/07/15 00:03:28;;;;;;;;;;;19.70;66.10;;;19.06;61.55;96242.09;4181562;33;19903;-85
2022/07/15 00:05:57;;;;;;;;;;;19.70;66.20;;;19.06;61.27;96238.47;4205309;33;20226;-84
2022/07/15 00:08:27;;;;;;;;;;;19.70;66.10;;;19.06;61.07;96238.47;4206167;33;20390;-84
2022/07/15 00:10:55;;;;;;;;;;;19.70;66.10;;;19.06;61.53;96244.03;4182181;33;20022;-85
2022/07/15 00:13:25;;;;;;;;;;;19.70;66.10;;;19.05;61.45;96239.63;4204708;33;20127;-84
2022/07/15 00:15:53;;;;;;;;;;;19.70;66.00;;;19.05;61.42;96234.06;4205008;33;19910;-84
2022/07/15 00:18:23;;;;;;;;;;;19.70;66.10;;;19.04;61.27;96233.25;4204998;33;20225;-84
2022/07/15 00:20:52;;;;;;;;;;;19.70;66.00;;;19.04;61.37;96227.72;4204962;33;20217;-85
2022/07/15 00:23:21;;;;;;;;;;;19.70;66.00;;;19.04;61.33;96232.47;4205655;33;20014;-85
2022/07/15 00:25:49;;;;;;;;;;;19.70;65.90;;;19.05;61.14;96229.34;4181993;33;20240;-85
2022/07/15 00:28:18;;;;;;;;;;;19.70;66.00;;;19.04;61.01;96226.91;4205963;33;20015;-86
2022/07/15 00:30:46;;;;;;;;;;;19.70;65.90;;;19.03;61.40;96231.63;4181904;33;19910;-86
2022/07/15 00:33:15;;;;;;;;;;;19.70;65.90;;;19.03;61.21;96225.28;4228127;33;20217;-85
2022/07/15 00:35:46;;;;;;;;;;;19.70;66.00;;;19.01;61.21;96214.47;4205029;33;20111;-85
2022/07/15 00:38:16;;;;;;;;;;;19.70;66.00;;;19.00;61.35;96210.91;4229309;33;19910;-85
2022/07/15 00:40:46;;;;;;;;;;;19.70;66.00;;;19.02;61.32;96210.56;4208906;33;19903;-85
2022/07/15 00:43:27;;;;;;;;;;;19.60;65.90;;;19.01;61.41;96207.00;4181368;33;19902;-85
2022/07/15 00:46:18;;;;;;;;;;;19.70;66.00;;;19.01;61.45;96209.75;4204838;33;19910;-86
2022/07/15 00:48:47;;;;;;;;;;;19.60;66.20;;;19.00;61.66;96198.97;4204884;33;20351;-85
2022/07/15 00:51:55;;;;;;;;;;;19.60;66.20;;;19.00;61.56;96202.59;4181648;33;19902;-85
2022/07/15 00:54:26;;;;;;;;;;;19.70;66.20;;;18.99;61.18;96200.94;4204598;33;19943;-85
2022/07/15 00:56:57;;;;;;;;;;;19.70;66.10;;;19.00;61.36;96210.91;4181652;33;19903;-84
2022/07/15 00:59:32;;;;;;;;;;;19.70;66.10;;;18.99;61.47;96198.19;4181714;33;20158;-85
2022/07/15 01:02:19;;;;;;;;;;;19.60;66.00;;;18.99;61.45;96197.34;4180976;33;19919;-86
2022/07/15 01:04:48;;;;;;;;;;;19.70;66.90;;;18.98;61.32;96202.09;4181403;33;20313;-85
2022/07/15 01:07:18;;;;;;;;;;;19.70;66.10;;;18.98;61.19;96196.53;4205589;33;20308;-86
2022/07/15 01:09:47;;;;;;;;;;;19.70;66.10;;;18.96;60.98;96187.72;4205645;33;20118;-85
2022/07/15 01:16:41;;;;;;;;;;;19.70;66.00;;;18.96;61.37;96190.50;4182402;34;20157;-85
2022/07/15 01:19:16;;;;;;;;;;;19.70;66.10;;;18.96;61.37;96182.16;4176353;33;20126;-84
2022/07/15 01:27:00;;;;;;;;;;;19.60;66.00;;;18.95;61.39;96186.09;4210077;33;19898;-85
2022/07/15 01:33:36;;;;;;;;;;;19.60;66.10;;;18.95;61.60;96174.19;4176053;34;19899;-85
2022/07/15 01:36:06;;;;;;;;;;;19.60;66.10;;;18.93;61.33;96177.25;4176606;34;19903;-84
2022/07/15 01:38:36;;;;;;;;;;;19.60;66.10;;;18.94;61.52;96178.91;4153642;34;19910;-84
2022/07/15 01:41:05;;;;;;;;;;;19.60;66.10;;;18.94;61.05;96181.69;4153574;34;19903;-85
2022/07/15 01:43:35;;;;;;;;;;;19.60;66.30;;;18.93;61.17;96182.78;4153141;34;19903;-85
2022/07/15 01:46:05;;;;;;;;;;;19.60;66.00;;;18.93;61.30;96177.25;4153664;34;19903;-85
2022/07/15 01:51:42;;;;;;;;;;;19.60;66.00;;;18.92;61.16;96175.59;4176794;34;19918;-85
2022/07/15 01:54:11;;;;;;;;;;;19.60;66.00;;;18.91;61.31;96173.97;4176504;34;19959;-85
2022/07/15 01:56:40;;;;;;;;;;;19.60;66.00;;;18.91;61.33;96185.06;4153497;34;19903;-85
2022/07/15 01:59:11;;;;;;;;;;;19.60;66.00;;;18.92;61.60;96169.25;4176339;33;20083;-84
2022/07/15 02:01:40;;;;;;;;;;;19.60;66.00;;;18.91;61.36;96179.50;4152984;34;20129;-85
2022/07/15 02:04:14;;;;;;;;;;;19.60;65.90;;;18.90;61.19;96177.06;4153600;34;20291;-84
2022/07/15 02:06:42;;;;;;;;;;;19.60;66.00;;;18.90;61.40;96182.63;4194640;33;20130;-85
2022/07/15 02:09:12;;;;;;;;;;;19.60;66.00;;;18.90;61.32;96177.91;4180824;33;19948;-85
2022/07/15 02:11:45;;;;;;;;;;;19.50;66.00;;;18.90;61.69;96172.38;4180632;33;19910;-85
2022/07/15 02:14:15;;;;;;;;;;;19.60;66.10;;;18.90;61.45;96177.91;4180712;33;19910;-84
2022/07/15 02:16:44;;;;;;;;;;;19.60;66.10;;;18.90;61.13;96182.63;4203926;33;19909;-85
2022/07/15 02:19:16;;;;;;;;;;;19.60;66.20;;;18.89;61.46;96178.22;4180798;33;20157;-85
2022/07/15 02:21:45;;;;;;;;;;;19.60;66.10;;;18.89;61.16;96176.28;4203631;33;20397;-85
2022/07/15 02:24:19;;;;;;;;;;;19.60;66.10;;;18.88;61.27;96174.66;4180647;33;20236;-85
2022/07/15 02:39:49;;;;;;;;;;;19.50;66.30;;;18.87;61.33;96178.56;4206219;33;19899;-85
2022/07/15 02:42:18;;;;;;;;;;;19.50;66.10;;;18.86;61.58;96182.47;4182604;33;19902;-85
2022/07/15 02:44:47;;;;;;;;;;;19.50;66.10;;;18.86;61.16;96188.00;4183037;33;20082;-85
2022/07/15 02:47:16;;;;;;;;;;;19.50;66.00;;;18.86;61.73;96185.25;4182989;33;20143;-85
2022/07/15 02:49:45;;;;;;;;;;;19.50;66.10;;;18.85;61.63;96194.69;4206139;33;20151;-85
2022/07/15 02:52:16;;;;;;;;;;;19.50;66.20;;;18.84;61.43;96191.13;4182707;33;20114;-86
2022/07/15 02:54:50;;;;;;;;;;;19.50;66.10;;;18.85;61.47;96187.19;4183026;33;20381;-85
2022/07/15 03:03:36;;;;;;;;;;;19.50;66.00;;;18.83;61.14;96192.25;4205448;33;19899;-85
2022/07/15 03:06:07;;;;;;;;;;;19.50;66.00;;;18.84;61.35;96195.84;4182167;33;20242;-85
2022/07/15 03:08:37;;;;;;;;;;;19.50;66.00;;;18.83;61.35;96194.19;4159131;33;19902;-85
2022/07/15 03:11:35;;;;;;;;;;;19.50;66.00;;;18.83;61.76;96195.03;4182069;33;20153;-85
2022/07/15 03:18:31;;;;;;;;;;;19.50;66.10;;;18.84;61.40;96193.91;4206465;33;20110;-85
2022/07/15 03:21:00;;;;;;;;;;;19.50;66.00;;;18.83;61.26;96189.50;4159143;33;20018;-86
2022/07/15 03:23:46;;;;;;;;;;;19.50;66.10;;;18.84;61.13;96198.59;4181421;33;20088;-85
2022/07/15 03:26:15;;;;;;;;;;;19.50;66.00;;;18.84;61.30;96193.06;4181966;33;20139;-84
2022/07/15 03:28:45;;;;;;;;;;;19.50;66.00;;;18.83;61.40;96195.03;4167103;33;20149;-85
2022/07/15 03:32:20;;;;;;;;;;;19.50;66.10;;;18.83;61.06;96189.50;4229213;33;20604;-84
2022/07/15 03:34:50;;;;;;;;;;;19.50;66.00;;;18.84;61.39;96193.06;4177880;34;20214;-85
2022/07/15 03:37:21;;;;;;;;;;;19.50;66.00;;;18.85;60.80;96197.47;4177938;33;19904;-85
2022/07/15 03:39:50;;;;;;;;;;;19.50;66.00;;;18.84;61.51;96193.06;4154841;34;20106;-85
2022/07/15 03:42:34;;;;;;;;;;;19.50;66.00;;;18.86;61.29;96191.59;4178390;34;19919;-85
2022/07/15 03:45:47;;;;;;;;;;;19.50;66.00;;;18.88;61.21;96191.28;4155022;34;19904;-85
2022/07/15 03:49:12;;;;;;;;;;;19.60;65.90;;;18.90;61.03;96199.28;4177731;33;19903;-85
2022/07/15 03:51:40;;;;;;;;;;;19.50;65.70;;;18.90;60.78;96197.31;4177262;34;19999;-85
2022/07/15 03:54:43;;;;;;;;;;;19.60;65.50;;;18.94;60.45;96203.06;4154868;34;20244;-85
2022/07/15 03:57:30;;;;;;;;;;;19.60;65.30;;;18.95;60.52;96190.84;4177593;34;19911;-85
2022/07/15 04:00:17;;;;;;;;;;;19.70;65.20;;;18.95;60.61;96197.19;4154597;34;19910;-86
2022/07/15 04:02:50;;;;;;;;;;;19.70;65.10;;;18.96;60.69;96193.28;4153894;34;19903;-85
2022/07/15 04:05:19;;;;;;;;;;;19.60;65.00;;;18.96;60.42;96196.03;4177607;34;19904;-85
2022/07/15 04:08:47;;;;;;;;;;;19.70;65.10;;;18.96;60.21;96187.72;4154604;34;20217;-84
2022/07/15 04:11:15;;;;;;;;;;;19.60;65.00;;;18.96;60.47;96179.41;4177274;34;19910;-85
2022/07/15 04:13:44;;;;;;;;;;;19.70;65.00;;;18.98;60.41;96187.38;4177443;34;20242;-85
2022/07/15 04:16:14;;;;;;;;;;;19.60;64.90;;;19.00;60.79;96183.16;4154764;34;19903;-85
2022/07/15 04:19:02;;;;;;;;;;;19.70;65.20;;;19.03;60.62;96178.09;4194252;28;20114;-81
2022/07/15 04:21:31;;;;;;;;;;;19.70;65.10;;;19.04;60.70;96194.41;4149378;34;20144;-81
2022/07/15 04:24:00;;;;;;;;;;;19.70;65.00;;;19.07;60.92;96190.16;4145797;34;19903;-81
2022/07/15 04:26:29;;;;;;;;;;;19.70;65.30;;;19.09;60.85;96196.22;4178675;34;20130;-81
2022/07/15 04:28:58;;;;;;;;;;;19.80;65.60;;;19.10;61.66;96192.28;4177345;33;19919;-81
2022/07/15 04:32:09;;;;;;;;;;;19.80;65.90;;;19.11;61.42;96191.16;4177112;34;19972;-81
2022/07/15 04:34:43;;;;;;;;;;;19.80;65.90;;;19.10;61.43;96187.59;4154728;34;19954;-80
2022/07/15 04:37:12;;;;;;;;;;;19.80;66.10;;;19.12;61.28;96195.56;4200793;33;20156;-81
2022/07/15 04:39:43;;;;;;;;;;;19.80;66.00;;;19.14;61.45;96188.53;4154688;34;19911;-81
2022/07/15 04:42:12;;;;;;;;;;;19.80;66.40;;;19.16;62.08;96196.56;4154073;34;19926;-82
2022/07/15 04:44:40;;;;;;;;;;;19.90;66.80;;;19.19;62.01;96193.09;4177597;34;19903;-81
2022/07/15 04:47:11;;;;;;;;;;;19.80;66.80;;;19.22;62.27;96194.44;4177679;34;19903;-81
2022/07/15 04:52:36;;;;;;;;;;;19.90;67.00;;;19.27;62.09;96191.47;4154042;34;20222;-82
2022/07/15 04:55:06;;;;;;;;;;;19.90;66.90;;;19.27;61.99;96197.84;4154673;34;19988;-81
2022/07/15 04:57:34;;;;;;;;;;;20.00;66.90;;;19.27;62.07;96192.31;4200098;33;19903;-81
2022/07/15 05:00:06;;;;;;;;;;;19.90;66.80;;;19.26;61.84;96199.00;4177432;33;19910;-81
2022/07/15 05:02:39;;;;;;;;;;;19.90;66.70;;;19.26;61.97;96189.84;4176754;34;20154;-81
2022/07/15 05:05:09;;;;;;;;;;;19.90;66.80;;;19.25;62.34;96189.03;4177427;34;19903;-81
2022/07/15 05:07:38;;;;;;;;;;;19.90;66.90;;;19.26;62.31;96187.91;4200662;33;20419;-80
2022/07/15 05:10:08;;;;;;;;;;;20.00;67.00;;;19.27;62.45;96192.31;4177378;33;19904;-82
2022/07/15 05:12:38;;;;;;;;;;;20.00;67.00;;;19.30;62.36;96191.63;4177083;34;20105;-81
2022/07/15 05:15:08;;;;;;;;;;;20.00;67.30;;;19.29;62.44;96192.78;4177211;34;19903;-81
2022/07/15 05:17:39;;;;;;;;;;;20.00;67.30;;;19.30;62.44;96194.41;4154063;34;23101;-81
2022/07/15 05:20:12;;;;;;;;;;;20.00;67.30;;;19.29;62.72;96192.78;4154224;34;20319;-81
2022/07/15 05:22:41;;;;;;;;;;;20.00;67.50;;;19.30;62.52;96194.41;4176597;34;19959;-82
2022/07/15 05:25:11;;;;;;;;;;;20.00;67.40;;;19.32;62.58;96194.91;4177220;34;20222;-82
2022/07/15 05:27:41;;;;;;;;;;;20.00;67.00;;;19.32;62.26;96189.34;4200453;33;20218;-81
2022/07/15 05:30:15;;;;;;;;;;;20.00;67.20;;;19.34;62.43;96191.81;4177279;33;19994;-81
2022/07/15 05:32:45;;;;;;;;;;;20.00;67.30;;;19.35;62.62;96192.63;4153813;34;19903;-81
2022/07/15 05:35:22;;;;;;;;;;;20.10;67.40;;;19.37;62.66;96195.88;4177097;34;19911;-81
2022/07/15 05:37:51;;;;;;;;;;;20.00;67.30;;;19.36;62.72;96191.47;4154184;34;20095;-81
2022/07/15 05:40:25;;;;;;;;;;;20.00;67.20;;;19.38;62.75;96203.06;4177080;33;19903;-82
2022/07/15 05:42:55;;;;;;;;;;;20.00;67.30;;;19.38;62.36;96201.09;4199729;33;19911;-81
2022/07/15 05:45:27;;;;;;;;;;;20.10;67.40;;;19.39;62.74;96193.59;4176862;34;20305;-81
2022/07/15 05:48:05;;;;;;;;;;;20.10;67.30;;;19.41;62.50;96191.31;4200117;33;20118;-81
2022/07/15 05:50:40;;;;;;;;;;;20.10;67.20;;;19.42;62.56;96188.19;4200330;33;20150;-81
2022/07/15 05:53:11;;;;;;;;;;;20.10;67.20;;;19.47;62.27;96198.31;4176620;34;19926;-81
2022/07/15 05:55:40;;;;;;;;;;;20.10;67.20;;;19.49;62.04;96198.81;4154347;34;19910;-81
2022/07/15 05:58:09;;;;;;;;;;;20.10;67.00;;;19.51;62.42;96190.13;4176916;34;20171;-81
2022/07/15 06:00:40;;;;;;;;;;;20.20;67.00;;;19.54;61.86;96192.25;4176783;33;19903;-81
2022/07/15 06:03:08;;;;;;;;;;;20.20;66.50;;;19.57;61.91;96189.63;4176386;34;19980;-81
2022/07/15 06:05:43;;;;;;;;;;;20.30;66.50;;;19.59;61.88;96187.34;4176717;34;19989;-81
2022/07/15 06:08:11;;;;;;;;;;;20.30;66.40;;;19.63;61.75;96187.50;4177409;34;19903;-81
2022/07/15 06:10:42;;;;;;;;;;;20.30;66.40;;;19.66;61.97;96186.03;4155851;34;20219;-81
2022/07/15 06:13:11;;;;;;;;;;;20.30;66.50;;;19.69;61.82;96193.69;4178518;34;20213;-81
2022/07/15 06:15:40;;;;;;;;;;;20.30;66.20;;;19.71;61.53;96191.41;4202062;33;19903;-81
2022/07/15 06:18:11;;;;;;;;;;;20.30;66.20;;;19.73;61.25;96187.16;4155958;34;20397;-82
2022/07/15 06:20:41;;;;;;;;;;;20.40;66.10;;;19.75;61.25;96189.59;4178754;34;19903;-81
2022/07/15 06:23:10;;;;;;;;;;;20.40;66.10;;;19.75;61.55;96189.59;4178460;34;19903;-81
2022/07/15 06:25:39;;;;;;;;;;;20.40;66.20;;;19.76;61.74;96191.25;4156089;34;20080;-81
2022/07/15 06:28:08;;;;;;;;;;;20.50;66.20;;;19.76;61.44;96183.72;4179677;34;19922;-81
2022/07/15 06:30:37;;;;;;;;;;;20.50;66.20;;;19.76;61.66;96192.03;4201869;33;20096;-82
2022/07/15 06:33:07;;;;;;;;;;;20.50;66.20;;;19.76;61.74;96185.69;4178178;34;19956;-82
2022/07/15 06:35:36;;;;;;;;;;;20.50;66.10;;;19.76;61.84;96188.47;4178670;34;20240;-82
2022/07/15 06:38:06;;;;;;;;;;;20.40;66.20;;;19.75;61.63;96179.31;4178703;34;20231;-82
2022/07/15 06:40:35;;;;;;;;;;;20.50;66.20;;;19.77;61.75;96176.22;4178737;34;20150;-81
2022/07/15 06:43:04;;;;;;;;;;;20.40;66.20;;;19.77;61.60;96177.00;4201327;33;20399;-81
2022/07/15 06:45:51;;;;;;;;;;;20.50;66.20;;;19.80;61.47;96181.09;4179344;34;19930;-82
2022/07/15 06:48:20;;;;;;;;;;;20.50;66.20;;;19.80;61.25;96181.09;4178936;34;19903;-82
2022/07/15 06:50:48;;;;;;;;;;;20.50;66.00;;;19.85;61.21;96183.69;4179247;33;19915;-82
2022/07/15 06:53:18;;;;;;;;;;;20.50;66.00;;;19.88;60.92;96176.72;4155079;34;20027;-82
2022/07/15 06:55:47;;;;;;;;;;;20.50;65.90;;;19.91;61.02;96181.56;4178462;34;20380;-81
2022/07/15 06:58:17;;;;;;;;;;;20.50;65.70;;;19.93;61.04;96169.00;4179364;34;19903;-82
2022/07/15 07:00:45;;;;;;;;;;;20.60;65.60;;;19.96;60.95;96167.50;4178406;33;19956;-81
2022/07/15 07:03:14;;;;;;;;;;;20.60;65.50;;;20.00;60.81;96162.09;4155054;34;19910;-81
2022/07/15 07:05:42;;;;;;;;;;;20.60;65.30;;;20.02;60.75;96159.81;4155429;34;20091;-82
2022/07/15 07:08:11;;;;;;;;;;;20.70;65.40;;;20.04;60.52;96158.31;4155460;34;19910;-81
2022/07/15 07:10:41;;;;;;;;;;;20.70;65.20;;;20.07;60.63;96162.41;4178343;33;20036;-81
2022/07/15 07:13:10;;;;;;;;;;;20.70;65.20;;;20.10;60.73;96161.72;4200896;33;19903;-81
2022/07/15 07:15:39;;;;;;;;;;;20.70;65.10;;;20.11;60.13;96165.34;4179196;34;19910;-81
2022/07/15 07:18:07;;;;;;;;;;;20.70;64.90;;;20.11;60.19;96166.13;4201391;33;19910;-82
2022/07/15 07:20:37;;;;;;;;;;;20.80;64.80;;;20.13;60.18;96163.84;4200724;33;20357;-82
2022/07/15 07:23:06;;;;;;;;;;;20.80;64.80;;;20.14;60.46;96171.03;4154716;34;19903;-81
2022/07/15 07:25:34;;;;;;;;;;;20.80;64.80;;;20.16;60.40;96170.69;4178210;34;20102;-81
2022/07/15 07:28:05;;;;;;;;;;;20.80;64.70;;;20.16;60.35;96170.69;4167363;33;19937;-81
2022/07/15 07:30:34;;;;;;;;;;;20.80;64.60;;;20.17;59.96;96170.38;4205851;33;19910;-82
2022/07/15 07:33:02;;;;;;;;;;;20.80;64.60;;;20.19;60.14;96168.09;4182368;33;20163;-81
2022/07/15 07:35:31;;;;;;;;;;;20.80;64.50;;;20.20;60.17;96166.91;4229452;33;20034;-82
2022/07/15 07:38:00;;;;;;;;;;;20.80;64.40;;;20.21;59.99;96160.19;4206811;33;19903;-82
2022/07/15 07:40:28;;;;;;;;;;;20.80;64.50;;;20.21;60.27;96165.75;4206748;33;19902;-82
2022/07/15 07:42:57;;;;;;;;;;;20.80;64.40;;;20.22;60.14;96164.63;4228735;33;20214;-82
2022/07/15 07:45:28;;;;;;;;;;;20.80;64.50;;;20.23;60.07;96154.31;4205605;33;20172;-81
2022/07/15 07:47:57;;;;;;;;;;;20.80;64.40;;;20.24;60.24;96153.97;4205645;33;19910;-81
2022/07/15 07:50:25;;;;;;;;;;;20.90;64.50;;;20.26;59.93;96155.59;4182375;33;19940;-81
2022/07/15 07:52:55;;;;;;;;;;;20.90;64.50;;;20.27;59.96;96160.03;4228456;33;20145;-81
2022/07/15 07:55:23;;;;;;;;;;;20.90;64.50;;;20.28;60.03;96156.09;4205732;33;20171;-81
2022/07/15 07:57:53;;;;;;;;;;;20.90;64.40;;;20.28;60.06;96156.91;4182438;33;19903;-81
2022/07/15 08:00:22;;;;;;;;;;;20.90;64.40;;;20.30;59.78;96164.91;4205419;33;20160;-82
2022/07/15 08:02:52;;;;;;;;;;;20.90;64.40;;;20.30;60.04;96159.34;4204998;33;19902;-81
2022/07/15 08:05:21;;;;;;;;;;;20.90;64.40;;;20.30;59.87;96149.03;4205296;33;19909;-81
2022/07/15 08:07:50;;;;;;;;;;;21.00;64.40;;;20.31;59.80;96145.13;4228956;33;20164;-81
2022/07/15 08:10:19;;;;;;;;;;;21.00;64.30;;;20.31;59.88;96149.88;4206237;33;20361;-81
2022/07/15 08:12:48;;;;;;;;;;;21.00;64.40;;;20.32;60.00;96148.72;4204905;33;19903;-80
2022/07/15 08:15:17;;;;;;;;;;;21.00;64.40;;;20.31;59.87;96145.13;4206279;33;19902;-80
2022/07/15 08:17:45;;;;;;;;;;;21.00;64.40;;;20.32;59.95;96145.94;4205347;33;20148;-81
2022/07/15 08:20:15;;;;;;;;;;;21.00;64.40;;;20.31;60.09;96142.34;4206115;33;19903;-81
2022/07/15 08:22:44;;;;;;;;;;;21.00;64.40;;;20.30;59.86;96145.47;4212127;33;19911;-81
2022/07/15 08:25:12;;;;;;;;;;;21.00;64.30;;;20.31;59.97;96138.75;4177465;34;19910;-81
2022/07/15 08:27:41;;;;;;;;;;;21.00;64.30;;;20.29;59.97;96141.06;4178283;34;19903;-81
2022/07/15 08:30:10;;;;;;;;;;;21.00;64.40;;;20.28;60.04;96139.41;4200533;33;19904;-81
2022/07/15 08:32:39;;;;;;;;;;;21.00;64.50;;;20.27;60.19;96135.81;4152784;34;20009;-81
2022/07/15 08:35:09;;;;;;;;;;;20.90;64.50;;;20.27;60.04;96135.00;4154360;34;19911;-81
2022/07/15 08:37:39;;;;;;;;;;;20.90;64.50;;;20.26;60.07;96133.38;4178340;34;20218;-81
2022/07/15 08:40:09;;;;;;;;;;;20.90;64.50;;;20.24;60.08;96128.97;4200289;33;19911;-81
2022/07/15 08:42:39;;;;;;;;;;;20.90;64.60;;;20.24;60.32;96134.53;4176736;34;20237;-81
2022/07/15 08:45:08;;;;;;;;;;;20.90;64.60;;;20.23;60.45;96132.88;4154491;34;19903;-81
2022/07/15 08:47:38;;;;;;;;;;;20.90;64.60;;;20.21;60.46;96132.41;4178176;34;19911;-81
2022/07/15 08:50:08;;;;;;;;;;;20.90;64.70;;;20.22;60.29;96124.91;4154231;34;19903;-81
2022/07/15 08:52:39;;;;;;;;;;;20.90;64.80;;;20.21;60.33;96137.97;4176580;34;19910;-81
2022/07/15 08:55:08;;;;;;;;;;;20.90;64.80;;;20.21;60.55;96132.41;4154223;34;20211;-81
2022/07/15 08:57:37;;;;;;;;;;;20.90;64.80;;;20.20;60.24;96135.53;4177054;34;19926;-81
2022/07/15 09:00:10;;;;;;;;;;;20.90;64.90;;;20.21;60.69;96142.72;4176979;33;20172;-81
2022/07/15 09:02:38;;;;;;;;;;;20.90;64.90;;;20.20;60.56;96132.75;4176542;34;19904;-81
2022/07/15 09:05:29;;;;;;;;;;;20.90;64.90;;;20.19;60.42;96131.94;4176920;34;19910;-81
2022/07/15 09:08:03;;;;;;;;;;;20.90;65.00;;;20.19;60.55;96131.13;4153995;34;19912;-82
2022/07/15 09:10:50;;;;;;;;;;;20.90;65.00;;;20.18;60.72;96129.50;4154042;34;20312;-81
2022/07/15 09:13:30;;;;;;;;;;;20.90;65.10;;;20.17;60.76;96131.47;4153525;34;19907;-81
2022/07/15 09:16:00;;;;;;;;;;;20.80;65.00;;;20.18;60.77;96144.22;4199912;33;19926;-81
2022/07/15 09:18:29;;;;;;;;;;;20.90;65.20;;;20.19;60.51;96140.28;4177818;34;20154;-81
2022/07/15 09:20:58;;;;;;;;;;;20.90;65.20;;;20.19;60.65;96142.22;4200186;33;19903;-81
2022/07/15 09:23:30;;;;;;;;;;;20.90;65.20;;;20.18;60.65;96135.88;4153346;34;19926;-81
2022/07/15 09:26:01;;;;;;;;;;;20.80;65.10;;;20.19;60.46;96137.50;4177743;34;19903;-81
2022/07/15 09:28:40;;;;;;;;;;;20.90;65.30;;;20.19;60.71;96142.22;4177765;34;19904;-81
2022/07/15 09:34:00;;;;;;;;;;;20.90;65.20;;;20.18;60.88;96144.22;4153959;34;19914;-81
2022/07/15 09:36:30;;;;;;;;;;;20.90;65.30;;;20.19;60.99;96136.69;4176705;34;20116;-81
2022/07/15 09:39:01;;;;;;;;;;;20.90;65.30;;;20.17;60.65;96131.47;4176308;33;20077;-81
2022/07/15 09:41:32;;;;;;;;;;;20.80;65.20;;;20.19;60.79;96137.50;4177165;34;19911;-81
2022/07/15 09:44:03;;;;;;;;;;;20.90;65.40;;;20.18;60.80;96141.44;4177270;34;19903;-80
2022/07/15 09:46:42;;;;;;;;;;;20.90;65.30;;;20.18;60.70;96135.88;4180168;34;20489;-81
2022/07/15 09:49:11;;;;;;;;;;;20.90;65.30;;;20.19;60.89;96136.69;4179185;33;19903;-81
2022/07/15 09:51:50;;;;;;;;;;;20.90;65.30;;;20.18;60.91;96127.53;4202138;33;19919;-81
2022/07/15 09:54:20;;;;;;;;;;;20.90;65.40;;;20.19;60.81;96133.91;4156268;34;20056;-81
2022/07/15 09:56:49;;;;;;;;;;;20.90;65.40;;;20.18;60.99;96124.75;4156151;34;19959;-81
2022/07/15 09:59:18;;;;;;;;;;;20.90;65.50;;;20.18;61.03;96115.59;4178804;33;19910;-81
2022/07/15 10:01:47;;;;;;;;;;;20.90;65.40;;;20.18;60.96;96119.19;4179519;34;20226;-81
2022/07/15 10:04:16;;;;;;;;;;;20.80;65.40;;;20.19;60.96;96126.38;4169461;34;19910;-81
2022/07/15 10:06:45;;;;;;;;;;;20.80;65.40;;;20.19;61.03;96114.44;4178903;34;20110;-81
2022/07/15 10:09:13;;;;;;;;;;;20.90;65.50;;;20.19;60.94;96117.22;4156035;34;20029;-81
2022/07/15 10:11:45;;;;;;;;;;;20.80;65.40;;;20.18;60.95;96108.09;4178422;34;19926;-81
2022/07/15 10:14:45;;;;;;;;;;;20.80;65.50;;;20.18;61.32;96112.81;4155923;34;20046;-80
2022/07/15 10:17:48;;;;;;;;;;;20.90;65.60;;;20.19;60.84;96123.59;4178797;34;19910;-80
2022/07/15 10:21:00;;;;;;;;;;;20.80;65.60;;;20.18;60.96;96110.88;4179817;33;19903;-82
2022/07/15 10:23:49;;;;;;;;;;;20.90;65.60;;;20.18;61.13;96102.53;4178269;34;20176;-81
2022/07/15 10:26:29;;;;;;;;;;;20.90;65.70;;;20.18;60.99;96113.63;4178655;34;19928;-82
2022/07/15 10:29:02;;;;;;;;;;;20.80;65.60;;;20.18;60.89;96102.53;4178623;33;19907;-82
2022/07/15 10:31:32;;;;;;;;;;;20.90;65.70;;;20.17;61.22;96103.66;4201536;33;20036;-81
2022/07/15 10:34:19;;;;;;;;;;;20.80;65.60;;;20.17;61.40;96103.66;4178601;34;19910;-81
2022/07/15 10:36:59;;;;;;;;;;;20.80;65.60;;;20.18;61.29;96105.31;4179559;34;19903;-81
2022/07/15 10:39:30;;;;;;;;;;;20.90;65.70;;;20.18;61.03;96099.75;4178648;33;20116;-82
2022/07/15 10:42:01;;;;;;;;;;;20.80;65.70;;;20.18;61.28;96102.53;4154832;34;20322;-81
2022/07/15 10:44:32;;;;;;;;;;;20.80;65.60;;;20.19;61.13;96098.59;4179201;34;20158;-82
2022/07/15 10:47:28;;;;;;;;;;;20.80;65.60;;;20.18;61.29;96096.97;4178573;34;20155;-82
2022/07/15 10:49:56;;;;;;;;;;;20.90;65.80;;;20.19;61.11;96098.59;4131430;34;19903;-81
2022/07/15 10:52:26;;;;;;;;;;;20.90;65.80;;;20.18;60.97;96093.34;4178249;34;19903;-82
2022/07/15 10:55:04;;;;;;;;;;;20.80;65.60;;;20.18;61.28;96099.75;4178177;34;20249;-82
2022/07/15 10:57:54;;;;;;;;;;;20.90;65.70;;;20.18;61.28;96091.41;4201636;33;20555;-82
2022/07/15 11:00:32;;;;;;;;;;;20.90;65.80;;;20.18;61.27;96091.41;4179461;34;20113;-82
2022/07/15 11:03:06;;;;;;;;;;;20.90;65.80;;;20.17;61.09;96084.22;4178048;34;19950;-81
2022/07/15 11:05:35;;;;;;;;;;;20.90;65.80;;;20.17;61.17;96092.56;4178330;34;19910;-82
2022/07/15 11:08:47;;;;;;;;;;;20.90;65.80;;;20.19;61.37;96089.44;4179239;34;20018;-81
2022/07/15 11:11:49;;;;;;;;;;;20.80;65.70;;;20.19;61.28;96092.22;4178300;34;19912;-82
2022/07/15 11:14:44;;;;;;;;;;;20.80;65.70;;;20.18;61.31;96091.41;4178176;34;19903;-82
2022/07/15 11:17:16;;;;;;;;;;;20.90;65.90;;;20.20;61.20;96093.84;4179237;34;20126;-82
2022/07/15 11:19:48;;;;;;;;;;;20.90;65.90;;;20.20;61.08;96091.06;4177785;34;19903;-82
2022/07/15 11:22:18;;;;;;;;;;;20.90;65.90;;;20.20;61.34;96089.06;4177821;34;19903;-81
2022/07/15 11:24:47;;;;;;;;;;;20.90;65.90;;;20.20;61.67;96088.28;4178070;34;19911;-82
2022/07/15 11:27:15;;;;;;;;;;;20.90;65.90;;;20.20;61.39;96077.16;4177869;34;20051;-82
2022/07/15 11:29:46;;;;;;;;;;;20.90;65.90;;;20.19;61.37;96081.91;4154936;34;19903;-82
2022/07/15 11:32:17;;;;;;;;;;;20.90;65.90;;;20.19;61.30;96076.34;4177768;34;19903;-82
2022/07/15 11:34:46;;;;;;;;;;;20.90;65.90;;;20.20;61.26;96072.41;4178104;34;20350;-82
2022/07/15 11:37:18;;;;;;;;;;;20.90;65.80;;;20.20;61.35;96080.75;4178209;34;20110;-82
2022/07/15 11:39:48;;;;;;;;;;;20.90;65.90;;;20.19;61.56;96068.03;4177767;33;20162;-82
2022/07/15 11:45:09;;;;;;;;;;;20.90;66.00;;;20.21;61.13;96073.22;4177873;34;19910;-82
2022/07/15 11:47:51;;;;;;;;;;;20.90;66.00;;;20.20;61.35;96069.63;4200929;33;20085;-81
2022/07/15 11:50:20;;;;;;;;;;;20.90;66.00;;;20.21;61.57;96074.03;4154903;34;19903;-82
2022/07/15 11:52:50;;;;;;;;;;;20.90;66.00;;;20.20;61.47;96066.84;4178511;34;19998;-82
2022/07/15 11:55:19;;;;;;;;;;;20.90;66.00;;;20.21;61.37;96068.47;4177866;34;20122;-82
2022/07/15 11:57:48;;;;;;;;;;;20.90;66.00;;;20.22;61.57;96058.97;4154991;34;19996;-81
2022/07/15 12:00:17;;;;;;;;;;;20.90;66.10;;;20.21;61.24;96060.13;4177673;34;19903;-82
2022/07/15 12:02:47;;;;;;;;;;;20.90;66.00;;;20.23;61.26;96062.59;4154309;34;19903;-82
2022/07/15 12:05:15;;;;;;;;;;;20.90;66.00;;;20.23;61.31;96066.19;4200927;33;19903;-82
2022/07/15 12:07:47;;;;;;;;;;;20.90;66.00;;;20.23;61.49;96068.97;4154714;34;20125;-82
2022/07/15 12:10:15;;;;;;;;;;;20.90;66.00;;;20.23;61.25;96073.72;4178648;34;19910;-82
2022/07/15 12:12:53;;;;;;;;;;;20.90;66.00;;;20.22;61.46;96075.66;4154330;34;20137;-82
2022/07/15 12:15:22;;;;;;;;;;;20.90;66.10;;;20.22;61.40;96075.66;4154609;34;20018;-82
2022/07/15 12:17:52;;;;;;;;;;;20.90;66.10;;;20.22;61.49;96075.66;4178457;34;20011;-82
2022/07/15 12:20:21;;;;;;;;;;;20.90;66.20;;;20.22;61.83;96075.66;4177279;34;19903;-82
2022/07/15 12:23:06;;;;;;;;;;;20.90;66.20;;;20.22;61.30;96075.66;4177943;34;20040;-82
2022/07/15 12:25:35;;;;;;;;;;;20.90;66.20;;;20.21;61.71;96068.47;4200581;33;19979;-82
2022/07/15 12:28:03;;;;;;;;;;;20.90;66.20;;;20.22;61.62;96067.31;4177354;34;20128;-82
2022/07/15 12:30:33;;;;;;;;;;;20.90;66.30;;;20.22;61.50;96067.31;4154527;34;20137;-81
2022/07/15 12:33:17;;;;;;;;;;;20.90;66.20;;;20.22;61.54;96077.66;4154033;34;20067;-81